Time;durP1;ratioP1;P1;durP2;ratioP2;P2;SDS_P1;SDS_P2;PMS_P1;PMS_P2;Temp;Humidity;BMP_temperature;BMP_pressure;BME280_temperature;BME280_humidity;BME280_pressure;Samples;Min_cycle;Max_cycle;Signal;HPM_P1;HPM_P2
2022/02/26 00:01:21;;;;;;;6.00;1.77;;;;;;;;;;5072740;28;20068;-59
2022/02/26 00:03:47;;;;;;;6.95;2.00;;;;;;;;;;5072744;28;20630;-60
2022/02/26 00:06:13;;;;;;;4.72;1.90;;;;;;;;;;5072722;28;20146;-60
2022/02/26 00:08:39;;;;;;;6.45;1.83;;;;;;;;;;5072616;28;20113;-60
2022/02/26 00:11:06;;;;;;;7.05;1.70;;;;;;;;;;5072656;28;20032;-60
2022/02/26 00:13:32;;;;;;;6.28;2.03;;;;;;;;;;5072527;28;20041;-60
2022/02/26 00:15:58;;;;;;;4.60;1.98;;;;;;;;;;5072551;28;20052;-60
2022/02/26 00:18:24;;;;;;;7.53;2.20;;;;;;;;;;5072449;28;20505;-60
2022/02/26 00:20:50;;;;;;;3.58;1.65;;;;;;;;;;5072457;28;20423;-60
2022/02/26 00:23:16;;;;;;;6.80;2.05;;;;;;;;;;5072533;28;20078;-60
2022/02/26 00:25:42;;;;;;;4.63;1.75;;;;;;;;;;5072436;28;20391;-60
2022/02/26 00:28:08;;;;;;;5.50;2.20;;;;;;;;;;5072418;28;20029;-60
2022/02/26 00:30:34;;;;;;;4.70;2.17;;;;;;;;;;5072428;28;20113;-60
2022/02/26 00:33:00;;;;;;;4.78;1.45;;;;;;;;;;5072323;28;20032;-60
2022/02/26 00:35:26;;;;;;;5.38;2.08;;;;;;;;;;5072578;28;20020;-60
2022/02/26 00:37:52;;;;;;;7.88;2.05;;;;;;;;;;5072384;28;20071;-60
2022/02/26 00:40:18;;;;;;;4.03;1.52;;;;;;;;;;5072394;28;20055;-60
2022/02/26 00:42:44;;;;;;;6.57;2.25;;;;;;;;;;5072321;28;20482;-60
2022/02/26 00:45:10;;;;;;;4.95;2.10;;;;;;;;;;5072345;28;20074;-60
2022/02/26 00:47:37;;;;;;;3.97;1.33;;;;;;;;;;5070941;28;20052;-60
2022/02/26 00:50:06;;;;;;;4.85;1.70;;;16.00;80.50;;;;;;5072223;28;20025;-60
2022/02/26 00:52:34;;;;;;;4.72;2.08;;;;;;;;;;5072050;28;20036;-60
2022/02/26 00:55:00;;;;;;;7.28;2.10;;;;;;;;;;5072379;28;20067;-60
2022/02/26 00:57:26;;;;;;;6.70;2.10;;;;;;;;;;5072181;28;20052;-60
2022/02/26 00:59:52;;;;;;;4.88;1.90;;;;;;;;;;5072160;28;20597;-61
2022/02/26 01:02:18;;;;;;;6.82;2.10;;;;;;;;;;5072003;28;20068;-61
2022/02/26 01:04:45;;;;;;;5.75;1.75;;;15.90;86.80;;;;;;5072085;28;20036;-59
2022/02/26 01:07:11;;;;;;;6.13;1.73;;;;;;;;;;5072019;28;20032;-60
2022/02/26 01:09:37;;;;;;;6.15;1.80;;;15.70;86.70;;;;;;5072293;28;20405;-59
2022/02/26 01:12:05;;;;;;;6.82;1.95;;;15.70;86.60;;;;;;5071928;28;20124;-60
2022/02/26 01:14:33;;;;;;;4.60;2.05;;;;;;;;;;5072211;28;20033;-60
2022/02/26 01:16:59;;;;;;;3.88;1.70;;;;;;;;;;5072005;28;20111;-47
2022/02/26 01:19:25;;;;;;;4.25;2.00;;;;;;;;;;5071946;28;20056;-60
2022/02/26 01:21:51;;;;;;;4.40;1.80;;;;;;;;;;5071922;28;20034;-60
2022/02/26 01:24:17;;;;;;;5.30;2.03;;;;;;;;;;5071848;28;20032;-60
2022/02/26 01:26:43;;;;;;;6.05;1.95;;;;;;;;;;5072090;28;20025;-60
2022/02/26 01:29:09;;;;;;;3.78;1.67;;;;;;;;;;5071840;28;20448;-60
2022/02/26 01:31:35;;;;;;;5.32;2.08;;;;;;;;;;5071820;28;20054;-60
2022/02/26 01:34:02;;;;;;;7.95;1.70;;;15.70;85.20;;;;;;5075327;28;20087;-61
2022/02/26 01:36:28;;;;;;;7.55;2.30;;;;;;;;;;5075503;28;20033;-48
2022/02/26 01:38:54;;;;;;;4.63;2.30;;;;;;;;;;5075416;28;20024;-47
2022/02/26 01:41:21;;;;;;;5.95;2.03;;;15.80;84.30;;;;;;5075637;28;20025;-47
2022/02/26 01:43:47;;;;;;;6.00;2.10;;;;;;;;;;5075293;28;20016;-47
2022/02/26 01:46:13;;;;;;;6.38;1.88;;;;;;;;;;5075361;28;20496;-48
2022/02/26 01:48:40;;;;;;;6.68;1.65;;;;;;;;;;5075232;28;20475;-47
2022/02/26 01:51:08;;;;;;;5.15;2.20;;;15.60;87.50;;;;;;5075237;28;20033;-47
2022/02/26 01:53:35;;;;;;;4.32;1.63;;;15.70;87.40;;;;;;5075221;28;20032;-46
2022/02/26 01:56:03;;;;;;;4.30;1.77;;;15.60;87.50;;;;;;5075158;28;20028;-47
2022/02/26 01:58:29;;;;;;;5.05;1.83;;;;;;;;;;5075110;28;20491;-47
2022/02/26 02:00:55;;;;;;;6.93;2.10;;;;;;;;;;5075067;28;20100;-47
2022/02/26 02:03:21;;;;;;;8.90;2.42;;;;;;;;;;5074771;28;20058;-47
2022/02/26 02:05:47;;;;;;;4.68;1.52;;;;;;;;;;5074945;28;20021;-47
2022/02/26 02:08:13;;;;;;;7.68;1.95;;;;;;;;;;5074960;28;20029;-48
2022/02/26 02:10:41;;;;;;;3.42;1.65;;;15.60;87.60;;;;;;5074876;28;20479;-48
2022/02/26 02:13:07;;;;;;;4.80;1.77;;;15.60;86.00;;;;;;5074772;28;20032;-47
2022/02/26 02:15:33;;;;;;;6.57;1.77;;;;;;;;;;5074803;28;20059;-47
2022/02/26 02:17:59;;;;;;;2.35;1.30;;;;;;;;;;5074752;28;20060;-47
2022/02/26 02:20:25;;;;;;;4.53;1.73;;;;;;;;;;5074693;28;20029;-48
2022/02/26 02:22:51;;;;;;;5.30;1.92;;;;;;;;;;5074654;28;20025;-48
2022/02/26 02:25:18;;;;;;;4.90;1.50;;;15.50;87.60;;;;;;5074639;28;20102;-47
2022/02/26 02:27:44;;;;;;;6.38;1.90;;;;;;;;;;5074845;28;20013;-47
2022/02/26 02:30:11;;;;;;;3.53;1.63;;;15.50;86.70;;;;;;5074642;28;20391;-47
2022/02/26 02:32:37;;;;;;;6.55;1.98;;;;;;;;;;5074491;28;20097;-47
2022/02/26 02:35:04;;;;;;;3.65;1.45;;;;;;;;;;5074467;28;20070;-48
2022/02/26 02:37:30;;;;;;;5.38;1.90;;;;;;;;;;5074706;28;20035;-46
2022/02/26 02:39:56;;;;;;;7.80;1.90;;;;;;;;;;5074386;28;20036;-48
2022/02/26 02:42:22;;;;;;;5.07;1.83;;;;;;;;;;5074377;28;20074;-48
2022/02/26 02:44:48;;;;;;;4.93;1.58;;;;;;;;;;5073979;28;20588;-47
2022/02/26 02:47:13;;;;;;;6.72;2.22;;;;;;;;;;5074324;28;20090;-47
2022/02/26 02:49:39;;;;;;;4.78;1.77;;;;;;;;;;5074317;28;20028;-60
2022/02/26 02:52:05;;;;;;;5.88;1.75;;;;;;;;;;5074038;28;20041;-60
2022/02/26 02:54:31;;;;;;;5.85;2.40;;;;;;;;;;5074376;28;20453;-60
2022/02/26 02:56:57;;;;;;;4.85;1.77;;;;;;;;;;5073995;28;20107;-61
2022/02/26 02:59:24;;;;;;;8.68;2.30;;;;;;;;;;5073975;28;20029;-60
2022/02/26 03:01:51;;;;;;;5.40;1.90;;;;;;;;;;5073864;28;20036;-60
2022/02/26 03:04:17;;;;;;;5.30;1.42;;;;;;;;;;5073931;28;20027;-59
2022/02/26 03:06:43;;;;;;;6.35;2.05;;;;;;;;;;5073949;28;20116;-60
2022/02/26 03:09:09;;;;;;;5.13;1.73;;;;;;;;;;5073798;28;20024;-60
2022/02/26 03:11:35;;;;;;;6.30;1.67;;;;;;;;;;5073737;28;20033;-60
2022/02/26 03:14:01;;;;;;;4.75;1.45;;;;;;;;;;5073560;28;20395;-60
2022/02/26 03:16:27;;;;;;;5.35;1.95;;;;;;;;;;5073687;28;20118;-60
2022/02/26 03:18:53;;;;;;;6.40;1.83;;;;;;;;;;5073582;28;20497;-60
2022/02/26 03:21:19;;;;;;;3.63;1.60;;;;;;;;;;5073548;28;20111;-60
2022/02/26 03:23:45;;;;;;;8.90;2.20;;;;;;;;;;5073780;28;20070;-60
2022/02/26 03:26:11;;;;;;;5.25;1.88;;;;;;;;;;5073522;28;20036;-60
2022/02/26 03:28:37;;;;;;;3.83;1.90;;;;;;;;;;5073444;28;20021;-60
2022/02/26 03:31:03;;;;;;;7.95;2.00;;;;;;;;;;5073293;28;20060;-60
2022/02/26 03:33:30;;;;;;;5.35;2.08;;;;;;;;;;5073216;28;20051;-60
2022/02/26 03:35:56;;;;;;;4.25;1.15;;;;;;;;;;5073199;28;20028;-60
2022/02/26 03:38:22;;;;;;;7.97;2.03;;;;;;;;;;5073101;28;20033;-60
2022/02/26 03:40:47;;;;;;;3.45;1.63;;;;;;;;;;5073186;28;20099;-60
2022/02/26 03:43:13;;;;;;;3.65;1.40;;;;;;;;;;5073084;28;20078;-60
2022/02/26 03:45:39;;;;;;;4.80;1.80;;;;;;;;;;5073072;28;20109;-60
2022/02/26 03:48:06;;;;;;;5.97;1.70;;;;;;;;;;5072998;28;20494;-60
2022/02/26 03:50:32;;;;;;;5.40;1.48;;;;;;;;;;5073023;28;20493;-60
2022/02/26 03:52:57;;;;;;;5.85;1.52;;;;;;;;;;5073070;28;20403;-60
2022/02/26 03:55:23;;;;;;;5.35;2.30;;;;;;;;;;5072212;28;20025;-60
2022/02/26 03:57:49;;;;;;;5.25;1.75;;;;;;;;;;5072874;28;20463;-60
2022/02/26 04:00:16;;;;;;;3.72;1.33;;;;;;;;;;5072809;28;20028;-60
2022/02/26 04:02:42;;;;;;;3.75;1.52;;;;;;;;;;5072637;28;20083;-60
2022/02/26 04:05:08;;;;;;;3.85;1.48;;;;;;;;;;5072756;28;20103;-60
2022/02/26 04:07:36;;;;;;;6.53;2.20;;;;;;;;;;5072654;28;20064;-61
2022/02/26 04:10:02;;;;;;;5.43;1.50;;;;;;;;;;5072637;28;20499;-60
2022/02/26 04:12:28;;;;;;;5.47;1.58;;;;;;;;;;5072549;28;20072;-61
2022/02/26 04:14:54;;;;;;;5.13;1.52;;;;;;;;;;5072589;28;20044;-60
2022/02/26 04:17:20;;;;;;;3.45;1.88;;;;;;;;;;5072551;28;20493;-60
2022/02/26 04:19:47;;;;;;;5.47;2.13;;;;;;;;;;5072600;28;20513;-60
2022/02/26 04:22:13;;;;;;;4.68;1.50;;;;;;;;;;5072816;28;20028;-60
2022/02/26 04:24:39;;;;;;;3.53;1.60;;;;;;;;;;5072523;28;20032;-60
2022/02/26 04:27:05;;;;;;;5.82;1.95;;;;;;;;;;5072484;28;20471;-60
2022/02/26 04:29:31;;;;;;;7.35;1.95;;;;;;;;;;5072430;28;20455;-60
2022/02/26 04:31:57;;;;;;;5.10;1.73;;;;;;;;;;5072326;28;20029;-60
2022/02/26 04:34:23;;;;;;;8.40;1.95;;;;;;;;;;5072350;28;20064;-60
2022/02/26 04:36:49;;;;;;;6.05;1.63;;;;;;;;;;5072394;28;20390;-60
2022/02/26 04:39:15;;;;;;;7.82;2.33;;;;;;;;;;5072397;28;20040;-60
2022/02/26 04:41:41;;;;;;;4.35;1.77;;;;;;;;;;5072407;28;20025;-60
2022/02/26 04:44:07;;;;;;;4.55;1.75;;;;;;;;;;5072576;28;20021;-60
2022/02/26 04:46:33;;;;;;;3.53;1.40;;;;;;;;;;5072265;28;20029;-60
2022/02/26 04:48:59;;;;;;;6.13;1.55;;;;;;;;;;5072297;28;20024;-60
2022/02/26 04:51:25;;;;;;;2.83;1.48;;;;;;;;;;5072429;28;20027;-61
2022/02/26 04:53:51;;;;;;;4.03;2.08;;;;;;;;;;5072187;28;20068;-60
2022/02/26 04:56:17;;;;;;;7.18;1.50;;;;;;;;;;5072228;28;20063;-61
2022/02/26 04:58:43;;;;;;;4.55;1.77;;;;;;;;;;5072288;28;20534;-60
2022/02/26 05:01:09;;;;;;;2.50;1.42;;;;;;;;;;5072021;28;20454;-60
2022/02/26 05:03:35;;;;;;;4.35;1.73;;;;;;;;;;5071926;28;20580;-60
2022/02/26 05:06:01;;;;;;;5.93;1.90;;;;;;;;;;5072553;28;20021;-60
2022/02/26 05:08:27;;;;;;;4.60;1.77;;;;;;;;;;5076083;28;20032;-61
2022/02/26 05:10:53;;;;;;;5.53;1.52;;;;;;;;;;5076106;28;20081;-60
2022/02/26 05:13:20;;;;;;;5.63;2.10;;;;;;;;;;5076008;28;20429;-60
2022/02/26 05:15:46;;;;;;;4.50;1.40;;;;;;;;;;5076088;28;20092;-60
2022/02/26 05:18:12;;;;;;;4.55;1.58;;;;;;;;;;5075876;28;20457;-46
2022/02/26 05:20:38;;;;;;;5.85;2.00;;;;;;;;;;5075844;28;20024;-47
2022/02/26 05:23:04;;;;;;;5.82;1.60;;;;;;;;;;5076104;28;20029;-48
2022/02/26 05:25:30;;;;;;;4.63;1.80;;;;;;;;;;5075754;28;20394;-46
2022/02/26 05:27:56;;;;;;;6.85;1.73;;;;;;;;;;5075693;28;20025;-47
2022/02/26 05:30:22;;;;;;;3.97;1.58;;;;;;;;;;5075628;28;20031;-47
2022/02/26 05:32:48;;;;;;;5.45;1.80;;;;;;;;;;5075583;28;20403;-48
2022/02/26 05:35:14;;;;;;;3.13;1.60;;;;;;;;;;5075676;28;20060;-48
2022/02/26 05:37:40;;;;;;;4.88;1.63;;;;;;;;;;5075472;28;20029;-48
2022/02/26 05:40:06;;;;;;;5.32;1.45;;;14.80;85.40;;;;;;5075459;28;20024;-47
2022/02/26 05:42:32;;;;;;;2.55;1.30;;;;;;;;;;5075395;28;20056;-47
2022/02/26 05:44:58;;;;;;;5.35;1.85;;;;;;;;;;5075373;28;20060;-47
2022/02/26 05:47:24;;;;;;;5.90;1.48;;;;;;;;;;5075351;28;20032;-47
2022/02/26 05:49:50;;;;;;;3.22;1.27;;;;;;;;;;5075263;28;20035;-47
2022/02/26 05:52:16;;;;;;;4.57;1.73;;;;;;;;;;5075233;28;20041;-47
2022/02/26 05:54:42;;;;;;;4.47;1.70;;;;;;;;;;5075192;28;20468;-47
2022/02/26 05:57:08;;;;;;;3.58;1.58;;;;;;;;;;5073829;28;20032;-47
2022/02/26 05:59:34;;;;;;;4.25;1.88;;;;;;;;;;5075090;28;20036;-47
2022/02/26 06:02:00;;;;;;;5.47;2.08;;;;;;;;;;5074829;28;20115;-48
2022/02/26 06:04:26;;;;;;;5.72;1.60;;;;;;;;;;5075112;28;20435;-46
2022/02/26 06:06:52;;;;;;;3.00;1.60;;;;;;;;;;5074986;28;20028;-47
2022/02/26 06:09:18;;;;;;;4.65;1.45;;;;;;;;;;5074941;28;20025;-48
2022/02/26 06:11:44;;;;;;;3.85;1.50;;;;;;;;;;5074986;28;20025;-48
2022/02/26 06:14:10;;;;;;;3.83;1.23;;;;;;;;;;5074811;28;20406;-47
2022/02/26 06:16:36;;;;;;;3.97;1.55;;;;;;;;;;5074811;28;20046;-45
2022/02/26 06:19:02;;;;;;;4.22;1.25;;;;;;;;;;5074320;28;20029;-46
2022/02/26 06:21:28;;;;;;;5.30;1.30;;;;;;;;;;5074781;28;20028;-48
2022/02/26 06:23:54;;;;;;;4.82;1.67;;;;;;;;;;5074631;28;20490;-46
2022/02/26 06:26:20;;;;;;;2.92;0.95;;;;;;;;;;5074673;28;20036;-46
2022/02/26 06:28:46;;;;;;;3.97;1.38;;;;;;;;;;5074618;28;20036;-48
2022/02/26 06:31:12;;;;;;;6.05;1.77;;;;;;;;;;5074657;28;20471;-46
2022/02/26 06:33:38;;;;;;;3.25;1.60;;;;;;;;;;5074466;28;20064;-48
2022/02/26 06:36:04;;;;;;;2.95;1.10;;;;;;;;;;5074432;28;20061;-47
2022/02/26 06:38:30;;;;;;;4.00;1.40;;;;;;;;;;5074406;28;20040;-47
2022/02/26 06:40:56;;;;;;;2.30;1.50;;;;;;;;;;5074345;28;20024;-48
2022/02/26 06:43:22;;;;;;;3.55;1.27;;;;;;;;;;5074329;28;20047;-47
2022/02/26 06:45:48;;;;;;;5.40;1.67;;;;;;;;;;5074571;28;20017;-47
2022/02/26 06:48:14;;;;;;;4.35;1.50;;;;;;;;;;5074324;28;20390;-48
2022/02/26 06:50:40;;;;;;;3.28;1.20;;;;;;;;;;5074205;28;20029;-48
2022/02/26 06:53:06;;;;;;;3.58;1.25;;;;;;;;;;5074041;28;20033;-48
2022/02/26 06:55:32;;;;;;;3.40;1.17;;;;;;;;;;5074342;28;20071;-48
2022/02/26 06:57:58;;;;;;;3.58;1.30;;;;;;;;;;5074076;28;20094;-48
2022/02/26 07:00:24;;;;;;;2.15;1.20;;;;;;;;;;5074034;28;20029;-47
2022/02/26 07:02:50;;;;;;;4.05;1.17;;;;;;;;;;5073661;28;20051;-48
2022/02/26 07:05:16;;;;;;;1.88;1.17;;;;;;;;;;5073856;28;20524;-49
2022/02/26 07:07:42;;;;;;;2.40;1.30;;;;;;;;;;5073958;28;20391;-48
2022/02/26 07:10:08;;;;;;;5.63;1.70;;;;;;;;;;5074001;28;20036;-48
2022/02/26 07:12:34;;;;;;;4.75;1.75;;;;;;;;;;5073664;28;20040;-50
2022/02/26 07:15:00;;;;;;;4.30;1.40;;;;;;;;;;5073627;28;20379;-49
2022/02/26 07:17:26;;;;;;;2.47;1.20;;;;;;;;;;5073631;28;20432;-49
2022/02/26 07:19:52;;;;;;;2.05;1.17;;;;;;;;;;5073558;28;20024;-49
2022/02/26 07:22:18;;;;;;;3.00;1.80;;;;;;;;;;5073531;28;20506;-47
2022/02/26 07:24:44;;;;;;;2.70;1.20;;;;;;;;;;5073535;28;20435;-47
2022/02/26 07:27:13;;;;;;;3.25;1.38;;;;;;;;;;5073270;28;20024;-47
2022/02/26 07:29:39;;;;;;;3.33;1.83;;;;;;;;;;5072674;28;20399;-49
2022/02/26 07:32:05;;;;;;;5.97;1.80;;;;;;;;;;5072955;28;20021;-47
2022/02/26 07:34:31;;;;;;;3.50;1.20;;;;;;;;;;5073329;28;20029;-47
2022/02/26 07:36:57;;;;;;;3.05;1.60;;;;;;;;;;5073274;28;20035;-48
2022/02/26 07:39:23;;;;;;;4.00;1.33;;;;;;;;;;5073208;28;20033;-48
2022/02/26 07:41:49;;;;;;;3.53;1.58;;;;;;;;;;5073262;28;20181;-48
2022/02/26 07:44:15;;;;;;;8.75;1.95;;;;;;;;;;5073147;28;20097;-58
2022/02/26 07:46:41;;;;;;;2.65;1.35;;;;;;;;;;5073033;28;20029;-59
2022/02/26 07:49:07;;;;;;;3.22;1.30;;;;;;;;;;5073000;28;20031;-59
2022/02/26 07:51:33;;;;;;;2.88;1.42;;;;;;;;;;5071717;28;20028;-59
2022/02/26 07:53:59;;;;;;;4.05;1.40;;;;;;;;;;5072821;28;20078;-59
2022/02/26 07:56:25;;;;;;;4.18;1.85;;;;;;;;;;5072864;28;20557;-59
2022/02/26 07:58:51;;;;;;;5.50;1.77;;;;;;;;;;5073042;28;20119;-59
2022/02/26 08:01:17;;;;;;;2.80;1.45;;;;;;;;;;5072715;28;20024;-59
2022/02/26 08:03:44;;;;;;;3.38;1.40;;;;;;;;;;5072610;28;20045;-58
2022/02/26 08:06:10;;;;;;;5.63;1.67;;;;;;;;;;5072722;28;20475;-58
2022/02/26 08:08:36;;;;;;;5.32;1.70;;;;;;;;;;5072798;28;20056;-57
2022/02/26 08:11:02;;;;;;;4.20;1.80;;;;;;;;;;5072963;28;20075;-58
2022/02/26 08:13:28;;;;;;;3.20;1.65;;;;;;;;;;5072821;28;20039;-57
2022/02/26 08:15:54;;;;;;;2.75;1.42;;;;;;;;;;5072658;28;20033;-58
2022/02/26 08:18:19;;;;;;;5.80;1.55;;;;;;;;;;5072640;28;20483;-58
2022/02/26 08:20:46;;;;;;;4.90;1.55;;;;;;;;;;5072748;28;20024;-57
2022/02/26 08:23:12;;;;;;;5.90;1.85;;;;;;;;;;5072556;28;20105;-59
2022/02/26 08:25:38;;;;;;;2.90;1.60;;;;;;;;;;5072509;28;20600;-57
2022/02/26 08:28:04;;;;;;;3.33;1.70;;;;;;;;;;5072422;28;20047;-57
2022/02/26 08:30:30;;;;;;;2.75;1.40;;;;;;;;;;5072392;28;20037;-59
2022/02/26 08:32:58;;;;;;;3.55;1.45;;;;;;;;;;5072387;28;20425;-59
2022/02/26 08:35:25;;;;;;;3.15;1.90;;;;;;;;;;5072385;28;20028;-58
2022/02/26 08:37:51;;;;;;;2.75;1.52;;;;;;;;;;5072327;28;20025;-58
2022/02/26 08:40:17;;;;;;;4.50;2.45;;;16.20;81.90;;;;;;5072363;28;20032;-57
2022/02/26 08:42:43;;;;;;;7.25;1.63;;;;;;;;;;5071863;28;20025;-54
2022/02/26 08:45:09;;;;;;;8.52;2.03;;;;;;;;;;5072348;28;20033;-54
2022/02/26 08:47:35;;;;;;;3.72;1.85;;;;;;;;;;5072454;28;20386;-51
2022/02/26 08:50:05;;;;;;;6.00;1.77;;;16.30;84.90;;;;;;5072260;28;20099;-54
2022/02/26 08:52:31;;;;;;;8.50;1.92;;;;;;;;;;5072082;28;20043;-57
2022/02/26 08:54:57;;;;;;;4.88;1.70;;;;;;;;;;5072222;28;20062;-55
2022/02/26 08:57:23;;;;;;;14.27;1.90;;;;;;;;;;5072219;28;20031;-56
2022/02/26 08:59:49;;;;;;;6.50;1.98;;;;;;;;;;5072204;28;20066;-54
2022/02/26 09:02:15;;;;;;;1.88;1.42;;;;;;;;;;5071866;28;20048;-58
2022/02/26 09:04:41;;;;;;;5.60;1.55;;;16.50;82.50;;;;;;5072158;28;20043;-55
2022/02/26 09:07:07;;;;;;;7.53;1.73;;;;;;;;;;5071937;28;20017;-57
2022/02/26 09:09:33;;;;;;;11.13;2.65;;;;;;;;;;5071753;28;20391;-58
2022/02/26 09:11:59;;;;;;;7.90;2.40;;;;;;;;;;5071626;28;20029;-59
2022/02/26 09:14:25;;;;;;;5.72;2.03;;;;;;;;;;5071779;28;20035;-59
2022/02/26 09:16:51;;;;;;;7.57;1.80;;;;;;;;;;5072168;28;20429;-59
2022/02/26 09:19:17;;;;;;;9.27;2.55;;;;;;;;;;5071822;28;20032;-58
2022/02/26 09:21:43;;;;;;;6.50;2.35;;;;;;;;;;5071842;28;20029;-59
2022/02/26 09:24:09;;;;;;;5.80;2.00;;;;;;;;;;5072079;28;20020;-59
2022/02/26 09:26:35;;;;;;;7.93;1.90;;;;;;;;;;5071792;28;20028;-58
2022/02/26 09:29:01;;;;;;;5.65;1.70;;;;;;;;;;5071762;28;20021;-58
2022/02/26 09:31:27;;;;;;;9.50;1.92;;;;;;;;;;5071541;28;20112;-56
2022/02/26 09:33:53;;;;;;;7.47;1.92;;;;;;;;;;5071502;28;20102;-58
2022/02/26 09:36:19;;;;;;;3.40;1.58;;;;;;;;;;5071419;28;20400;-57
2022/02/26 09:38:46;;;;;;;3.45;1.83;;;;;;;;;;5071358;28;20028;-58
2022/02/26 09:41:12;;;;;;;5.15;1.60;;;17.60;83.30;;;;;;5071598;28;20052;-56
2022/02/26 09:43:38;;;;;;;6.38;1.88;;;;;;;;;;5071312;28;20028;-57
2022/02/26 09:46:05;;;;;;;8.02;2.28;;;17.60;83.30;;;;;;5071317;28;20032;-58
2022/02/26 09:48:32;;;;;;;5.45;1.63;;;17.70;80.70;;;;;;5071601;28;20074;-58
2022/02/26 09:50:58;;;;;;;2.40;1.27;;;17.50;81.60;;;;;;5071365;28;20016;-57
2022/02/26 09:53:24;;;;;;;6.40;1.50;;;;;;;;;;5072052;28;20052;-56
2022/02/26 09:55:54;;;;;;;3.85;1.33;;;17.70;77.10;;;;;;5075502;28;20100;-55
2022/02/26 09:58:21;;;;;;;6.18;1.83;;;17.60;79.60;;;;;;5074850;28;20093;-57
2022/02/26 10:00:47;;;;;;;7.53;1.67;;;;;;;;;;5074876;28;20024;-57
2022/02/26 10:03:33;;;;;;;6.88;1.50;;;17.80;77.10;;;;;;5074446;28;20061;-57
2022/02/26 10:06:23;;;;;;;6.07;1.52;;;17.70;77.10;;;;;;5074675;28;20494;-57
2022/02/26 10:08:55;;;;;;;2.88;1.20;;;18.00;82.80;;;;;;5074225;28;20040;-57
2022/02/26 10:11:36;;;;;;;6.65;1.30;;;18.00;77.00;;;;;;5075020;28;20105;-62
2022/02/26 10:14:08;;;;;;;5.60;1.50;;;18.00;77.00;;;;;;5074531;28;20154;-56
2022/02/26 10:16:55;;;;;;;6.40;1.40;;;17.80;76.90;;;;;;5074825;28;20102;-59
2022/02/26 10:19:33;;;;;;;3.05;1.33;;;18.00;83.10;;;;;;5074795;28;20406;-57
2022/02/26 10:22:03;;;;;;;3.90;1.40;;;17.90;83.60;;;;;;5074757;28;20396;-57
2022/02/26 10:24:30;;;;;;;7.40;1.52;;;;;;;;;;5074708;28;20025;-57
2022/02/26 10:27:00;;;;;;;4.38;1.48;;;18.00;85.60;;;;;;5074510;28;20020;-57
2022/02/26 10:29:26;;;;;;;3.50;1.33;;;;;;;;;;5074776;28;20024;-57
2022/02/26 10:31:54;;;;;;;4.43;1.60;;;18.00;86.60;;;;;;5074379;28;20029;-56
2022/02/26 10:34:40;;;;;;;10.35;3.20;;;18.10;73.20;;;;;;5074228;28;20598;-58
2022/02/26 10:37:07;;;;;;;9.23;2.38;;;17.70;83.00;;;;;;5074176;28;20023;-56
2022/02/26 10:39:43;;;;;;;6.78;2.10;;;17.60;78.30;;;;;;5074340;28;20081;-57
2022/02/26 10:42:17;;;;;;;11.90;2.25;;;17.50;81.90;;;;;;5074259;28;20056;-57
2022/02/26 10:44:43;;;;;;;7.28;1.70;;;;;;;;;;5074151;28;20099;-57
2022/02/26 10:47:14;;;;;;;9.35;2.03;;;17.70;75.90;;;;;;5074152;28;20068;-57
2022/02/26 10:49:47;;;;;;;5.88;1.80;;;17.80;76.10;;;;;;5074111;28;20028;-56
2022/02/26 10:52:15;;;;;;;9.68;1.90;;;17.70;82.00;;;;;;5073955;28;20029;-57
2022/02/26 10:54:42;;;;;;;5.13;1.20;;;17.90;79.70;;;;;;5073930;28;20048;-56
2022/02/26 10:57:10;;;;;;;5.38;1.73;;;17.70;82.70;;;;;;5074220;28;20425;-55
2022/02/26 10:59:41;;;;;;;5.72;1.60;;;17.80;82.00;;;;;;5073917;28;20020;-56
2022/02/26 11:02:11;;;;;;;8.85;1.60;;;17.90;81.80;;;;;;5073435;28;20041;-56
2022/02/26 11:04:37;;;;;;;3.50;1.90;;;;;;;;;;5073614;28;20052;-55
2022/02/26 11:07:07;;;;;;;4.80;1.55;;;17.90;76.30;;;;;;5073994;28;20020;-56
2022/02/26 11:09:35;;;;;;;5.57;1.33;;;17.80;82.20;;;;;;5073753;28;20020;-53
2022/02/26 11:12:01;;;;;;;5.18;1.42;;;;;;;;;;5073404;28;20050;-56
2022/02/26 11:14:29;;;;;;;5.43;1.30;;;17.80;82.40;;;;;;5073508;28;20028;-56
2022/02/26 11:17:01;;;;;;;5.45;1.05;;;17.90;82.50;;;;;;5073357;28;20029;-57
2022/02/26 11:19:29;;;;;;;4.10;1.15;;;;;;;;;;5073406;28;20029;-55
2022/02/26 11:21:55;;;;;;;3.38;1.00;;;;;;;;;;5073343;28;20016;-56
2022/02/26 11:24:21;;;;;;;6.78;1.35;;;;;;;;;;5073709;28;20108;-55
2022/02/26 11:26:47;;;;;;;7.70;1.85;;;17.80;79.20;;;;;;5073206;28;20487;-60
2022/02/26 11:29:16;;;;;;;5.30;1.30;;;17.80;82.50;;;;;;5073205;28;20107;-55
2022/02/26 11:31:47;;;;;;;5.28;1.73;;;17.80;76.90;;;;;;5073166;28;20016;-56
2022/02/26 11:34:21;;;;;;;4.65;1.30;;;17.90;83.00;;;;;;5073201;28;20040;-56
2022/02/26 11:37:09;;;;;;;3.40;1.30;;;17.80;77.00;;;;;;5073296;28;20074;-56
2022/02/26 11:39:38;;;;;;;3.47;1.30;;;17.80;83.30;;;;;;5073237;28;20025;-55
2022/02/26 11:42:26;;;;;;;4.65;1.38;;;17.70;77.10;;;;;;5073170;28;20135;-55
2022/02/26 11:44:57;;;;;;;3.58;1.27;;;17.70;77.30;;;;;;5073204;28;20479;-48
2022/02/26 11:47:31;;;;;;;5.35;1.23;;;17.70;83.40;;;;;;5072795;28;20028;-48
2022/02/26 11:49:59;;;;;;;3.13;0.93;;;17.60;83.20;;;;;;5072853;28;20020;-48
2022/02/26 11:52:49;;;;;;;5.38;1.30;;;17.70;77.50;;;;;;5072771;28;20364;-49
2022/02/26 11:55:20;;;;;;;3.40;1.30;;;18.00;77.80;;;;;;5072486;28;20073;-48
2022/02/26 11:57:47;;;;;;;4.13;1.73;;;17.70;83.80;;;;;;5072409;28;20032;-48
2022/02/26 12:00:17;;;;;;;3.42;1.05;;;18.00;84.00;;;;;;5072776;28;20077;-47
2022/02/26 12:02:43;;;;;;;3.35;1.10;;;;;;;;;;5072505;28;20067;-47
2022/02/26 12:05:09;;;;;;;4.93;1.38;;;;;;;;;;5072593;28;20028;-48
2022/02/26 12:07:42;;;;;;;3.00;1.10;;;17.50;78.10;;;;;;5072487;28;20502;-48
2022/02/26 12:10:10;;;;;;;3.58;1.30;;;17.50;84.10;;;;;;5072429;28;20424;-50
2022/02/26 12:12:39;;;;;;;3.08;0.80;;;17.40;84.10;;;;;;5072471;28;20033;-47
2022/02/26 12:15:17;;;;;;;4.50;0.85;;;17.40;84.30;;;;;;5072603;28;20028;-47
2022/02/26 12:17:46;;;;;;;4.20;1.00;;;17.40;78.30;;;;;;5072021;28;20032;-48
2022/02/26 12:20:19;;;;;;;4.50;1.10;;;17.40;78.40;;;;;;5072687;28;20067;-47
2022/02/26 12:22:47;;;;;;;2.08;0.90;;;17.30;84.40;;;;;;5072541;28;20032;-47
2022/02/26 12:25:14;;;;;;;2.60;1.00;;;17.30;83.30;;;;;;5072414;28;20120;-47
2022/02/26 12:27:40;;;;;;;4.32;1.35;;;;;;;;;;5072638;28;20021;-47
2022/02/26 12:30:10;;;;;;;2.47;0.77;;;17.30;84.50;;;;;;5072392;28;20548;-46
2022/02/26 12:33:11;;;;;;;2.45;1.05;;;17.30;78.40;;;;;;5072363;28;20079;-48
2022/02/26 12:35:37;;;;;;;3.72;1.30;;;17.20;84.40;;;;;;5072032;28;20505;-48
2022/02/26 12:38:23;;;;;;;3.80;0.95;;;17.20;84.40;;;;;;5072424;28;20434;-48
2022/02/26 12:40:49;;;;;;;2.53;1.00;;;;;;;;;;5072352;28;20028;-47
2022/02/26 12:43:15;;;;;;;1.95;0.93;;;;;;;;;;5072251;28;20127;-47
2022/02/26 12:45:45;;;;;;;1.60;1.00;;;17.30;84.70;;;;;;5072292;28;20107;-48
2022/02/26 12:48:11;;;;;;;3.10;1.08;;;;;;;;;;5072139;28;20024;-47
2022/02/26 12:50:38;;;;;;;0.75;0.60;;;17.10;84.00;;;;;;5072209;28;20094;-47
2022/02/26 12:53:04;;;;;;;3.78;1.08;;;;;;;;;;5072128;28;20040;-47
2022/02/26 12:55:31;;;;;;;2.60;0.80;;;17.10;84.90;;;;;;5072187;28;20054;-47
2022/02/26 12:57:58;;;;;;;2.53;0.88;;;;;;;;;;5072163;28;20029;-48
2022/02/26 13:00:27;;;;;;;3.42;0.93;;;16.90;84.90;;;;;;5072164;28;20436;-47
2022/02/26 13:02:53;;;;;;;3.15;0.90;;;;;;;;;;5071869;28;20403;-48
2022/02/26 13:05:27;;;;;;;2.92;0.90;;;17.10;85.00;;;;;;5072060;28;20021;-48
2022/02/26 13:08:07;;;;;;;1.98;1.35;;;17.00;78.90;;;;;;5072096;28;20035;-47
2022/02/26 13:10:38;;;;;;;5.80;1.13;;;17.00;84.90;;;;;;5072349;28;20429;-48
2022/02/26 13:13:08;;;;;;;2.53;0.93;;;17.00;85.00;;;;;;5071949;28;20047;-47
2022/02/26 13:15:35;;;;;;;;;;;17.00;85.40;;;;;;5072494;28;20027;-48
2022/02/26 13:18:01;;;;;;;2.78;0.85;;;;;;;;;;5071957;28;19904;-48
2022/02/26 13:20:27;;;;;;;3.85;1.05;;;;;;;;;;5071897;28;20040;-48
2022/02/26 13:23:15;;;;;;;1.92;0.80;;;17.10;85.30;;;;;;5071955;28;20029;-48
2022/02/26 13:25:43;;;;;;;2.33;0.88;;;17.10;85.40;;;;;;5071316;28;20045;-48
2022/02/26 13:28:10;;;;;;;3.03;1.02;;;17.10;85.50;;;;;;5073835;28;20536;-47
2022/02/26 13:30:37;;;;;;;2.00;1.00;;;17.10;82.10;;;;;;5075823;28;20394;-48
2022/02/26 13:33:03;;;;;;;1.98;0.85;;;17.20;82.10;;;;;;5075567;28;20036;-47
2022/02/26 13:35:31;;;;;;;2.83;0.95;;;17.20;85.60;;;;;;5075603;28;20111;-46
2022/02/26 13:38:00;;;;;;;2.95;1.00;;;17.10;85.40;;;;;;5075557;28;20081;-47
2022/02/26 13:40:26;;;;;;;3.88;1.08;;;17.10;85.00;;;;;;5075442;28;20020;-47
2022/02/26 13:42:55;;;;;;;2.70;1.42;;;17.10;85.60;;;;;;5075503;28;20506;-47
2022/02/26 13:45:21;;;;;;;3.17;1.17;;;;;;;;;;5075463;28;20378;-48
2022/02/26 13:47:49;;;;;;;3.17;0.93;;;17.20;85.60;;;;;;5075437;28;20487;-48
2022/02/26 13:50:16;;;;;;;5.00;0.98;;;17.10;85.80;;;;;;5075323;28;20054;-47
2022/02/26 13:52:44;;;;;;;3.17;1.20;;;17.10;85.70;;;;;;5075231;28;20097;-47
2022/02/26 13:55:13;;;;;;;3.88;1.08;;;17.10;85.70;;;;;;5075230;28;20028;-45
2022/02/26 13:57:43;;;;;;;2.92;0.88;;;17.10;79.70;;;;;;5075046;28;20028;-47
2022/02/26 14:00:14;;;;;;;2.92;1.10;;;17.20;80.00;;;;;;5075099;28;20021;-47
2022/02/26 14:02:43;;;;;;;4.47;1.20;;;17.10;85.80;;;;;;5074576;28;20086;-49
2022/02/26 14:05:11;;;;;;;3.03;1.27;;;17.20;85.80;;;;;;5074580;28;20483;-47
2022/02/26 14:07:46;;;;;;;2.92;0.88;;;17.20;79.60;;;;;;5074742;28;20021;-48